Time;durP1;ratioP1;P1;durP2;ratioP2;P2;SDS_P1;SDS_P2;PMS_P1;PMS_P2;Temp;Humidity;BMP_temperature;BMP_pressure;BME280_temperature;BME280_humidity;BME280_pressure;Samples;Min_cycle;Max_cycle;Signal;HPM_P1;HPM_P2
2022/11/03 00:02:16;;;;;;;;;7.33;5.00;;;;;14.23;64.95;100780.13;5075019;28;45457;-65
2022/11/03 00:04:42;;;;;;;;;7.00;7.00;;;;;14.24;64.63;100786.25;5075694;28;45320;-62
2022/11/03 00:07:08;;;;;;;;;4.67;4.67;;;;;14.24;65.08;100783.63;5075869;28;45404;-61
2022/11/03 00:09:34;;;;;;;;;5.67;5.00;;;;;14.26;65.25;100785.25;5075241;28;45367;-63
2022/11/03 00:12:00;;;;;;;;;8.33;8.33;;;;;14.25;65.19;100782.69;5075183;28;45611;-61
2022/11/03 00:14:26;;;;;;;;;7.00;6.00;;;;;14.22;65.51;100783.72;5075439;27;45628;-62
2022/11/03 00:16:53;;;;;;;;;5.00;4.33;;;;;14.23;65.58;100777.47;5075493;28;46061;-63
2022/11/03 00:19:18;;;;;;;;;3.00;3.00;;;;;14.21;65.27;100767.91;5075848;28;45446;-61
2022/11/03 00:21:45;;;;;;;;;6.00;6.00;;;;;14.21;65.31;100759.97;5075408;28;45557;-62
2022/11/03 00:24:10;;;;;;;;;7.33;7.33;;;;;14.19;65.75;100767.13;5075916;28;45385;-64
2022/11/03 00:26:36;;;;;;;;;5.33;4.00;;;;;14.15;65.45;100763.75;5073512;28;46305;-63
2022/11/03 00:29:10;;;;;;;;;3.67;3.67;;;;;14.14;65.56;100757.63;5075557;28;45577;-62
2022/11/03 00:31:37;;;;;;;;;5.00;5.00;;;;;14.18;65.18;100755.66;5075828;28;45407;-61
2022/11/03 00:34:04;;;;;;;;;7.33;5.33;;;;;14.18;65.88;100752.16;5057314;28;45439;-61
2022/11/03 00:36:31;;;;;;;;;4.00;4.00;;;;;14.14;66.16;100744.38;5074235;28;45562;-63
2022/11/03 00:38:57;;;;;;;;;7.00;5.00;;;;;14.13;65.96;100752.38;5055257;28;45567;-61
2022/11/03 00:41:24;;;;;;;;;7.33;5.33;;;;;14.12;66.02;100738.31;5075934;28;45473;-61
2022/11/03 00:43:51;;;;;;;;;8.00;4.33;;;;;14.11;65.82;100735.75;5075375;28;45441;-62
2022/11/03 00:46:17;;;;;;;;;6.33;6.33;;;;;14.12;66.16;100733.03;5074744;28;45465;-64
2022/11/03 00:48:43;;;;;;;;;7.67;6.00;;;;;14.09;65.72;100729.66;5065964;28;45542;-61
2022/11/03 00:51:12;;;;;;;;;6.67;6.67;;;;;14.10;66.06;100734.03;5074146;28;45415;-63
2022/11/03 00:53:49;;;;;;;;;10.33;9.67;;;;;14.09;65.21;100722.59;5075509;28;45391;-61
2022/11/03 00:56:19;;;;;;;;;5.33;4.00;;;;;14.06;65.74;100722.75;5075295;28;45438;-60
2022/11/03 00:58:45;;;;;;;;;4.33;4.33;;;;;14.05;66.37;100714.88;5076204;28;45425;-65
2022/11/03 01:01:16;;;;;;;;;7.67;7.67;;;;;14.05;66.35;100709.56;5056028;28;45514;-60
2022/11/03 01:09:12;;;;;;;;;5.33;5.33;;;;;14.03;66.34;100692.94;5067992;28;45470;-62
2022/11/03 01:11:44;;;;;;;;;6.00;5.33;;;;;14.02;66.32;100694.72;5060209;28;45565;-60
2022/11/03 01:14:11;;;;;;;;;7.00;6.00;;;;;14.03;66.41;100692.94;5075447;27;45424;-63
2022/11/03 01:16:37;;;;;;;;;4.67;4.67;;;;;14.02;66.41;100685.94;5074995;28;45450;-65
2022/11/03 01:19:03;;;;;;;;;7.67;6.33;;;;;14.00;66.68;100682.53;5075145;28;45381;-62
2022/11/03 01:21:28;;;;;;;;;5.33;3.33;;;;;14.00;66.37;100678.09;5074886;28;45390;-62
2022/11/03 01:23:54;;;;;;;;;4.33;4.33;;;;;13.99;66.22;100663.13;5075234;28;45377;-63
2022/11/03 01:26:19;;;;;;;;;4.33;4.33;;;;;14.02;66.35;100664.78;5071131;28;46158;-61
2022/11/03 01:28:46;;;;;;;;;9.00;4.00;;;;;14.03;66.57;100656.78;5074809;28;45521;-61
2022/11/03 01:31:17;;;;;;;;;8.67;3.67;;;;;14.01;66.90;100656.00;5055909;28;45446;-62
2022/11/03 01:33:44;;;;;;;;;6.67;6.00;;;;;14.02;66.93;100654.19;5075101;28;45457;-60
2022/11/03 01:36:11;;;;;;;;;5.00;5.00;;;;;14.03;66.50;100656.78;5074265;28;45494;-62
2022/11/03 01:38:37;;;;;;;;;3.00;3.00;;;;;14.06;66.73;100648.69;5071067;28;45414;-61
2022/11/03 01:41:05;;;;;;;;;6.67;5.33;;;;;14.10;66.51;100636.16;5072578;28;45479;-61
2022/11/03 01:43:31;;;;;;;;;5.67;4.33;;;;;14.07;66.54;100639.81;5078424;28;45378;-64
2022/11/03 01:46:18;;;;;;;;;5.67;4.67;;;;;14.07;66.77;100623.09;5072465;28;45442;-62
2022/11/03 01:49:02;;;;;;;;;4.00;4.00;;;;;14.04;66.46;100618.81;5078179;28;45516;-61
2022/11/03 01:51:30;;;;;;;;;6.67;5.00;;;;;14.02;66.61;100627.75;5042691;28;45434;-62
2022/11/03 01:53:58;;;;;;;;;6.00;4.00;;;;;14.00;66.33;100617.28;5078365;28;45441;-61
2022/11/03 01:56:25;;;;;;;;;7.33;6.00;;;;;13.98;67.03;100605.91;5076369;28;45479;-63
2022/11/03 01:58:54;;;;;;;;;5.00;5.00;;;;;13.99;66.53;100604.09;5078930;28;45481;-63
2022/11/03 02:01:20;;;;;;;;;7.33;4.00;;;;;14.01;66.90;100605.75;5078075;28;45429;-64
2022/11/03 02:03:52;;;;;;;;;7.67;6.00;;;;;14.02;67.16;100598.66;5077436;28;45453;-63
2022/11/03 02:06:22;;;;;;;;;5.00;5.00;;;;;13.99;66.72;100589.09;5077352;28;45374;-61
2022/11/03 02:09:00;;;;;;;;;6.00;5.00;;;;;14.02;66.46;100585.44;5077800;28;45512;-64
2022/11/03 02:14:13;;;;;;;;;8.33;8.33;;;;;14.04;66.90;100588.88;5077589;27;45432;-61
2022/11/03 02:16:42;;;;;;;;;5.00;5.00;;;;;14.01;66.94;100581.09;5077521;28;45926;-60
2022/11/03 02:19:20;;;;;;;;;4.67;4.67;;;;;14.01;66.83;100579.31;5077809;28;45470;-64
2022/11/03 02:22:01;;;;;;;;;7.00;7.00;;;;;14.03;66.60;100569.50;5077667;28;45351;-65
2022/11/03 02:24:49;;;;;;;;;4.00;4.00;;;;;13.99;67.19;100567.09;5065947;28;45372;-64
2022/11/03 02:27:15;;;;;;;;;7.33;6.00;;;;;13.98;67.15;100558.31;5058247;28;45668;-60
2022/11/03 02:29:40;;;;;;;;;5.00;5.00;;;;;14.00;66.46;100563.53;5068022;28;45389;-64
2022/11/03 02:32:20;;;;;;;;;6.33;5.00;;;;;13.98;66.83;100554.81;5072683;28;45418;-60
2022/11/03 02:35:29;;;;;;;;;4.67;4.67;;;;;13.97;66.79;100547.78;5076793;28;45455;-63
2022/11/03 02:37:59;;;;;;;;;5.33;4.33;;;;;14.00;66.95;100550.31;5035558;28;45410;-64
2022/11/03 02:40:31;;;;;;;;;7.00;5.33;;;;;14.00;66.74;100540.59;5076357;28;45480;-62
2022/11/03 02:42:59;;;;;;;;;5.00;4.00;;;;;14.00;66.66;100537.09;5076805;28;45482;-64
2022/11/03 02:45:26;;;;;;;;;5.67;5.67;;;;;14.04;67.14;100546.56;5076856;28;45561;-63
2022/11/03 02:47:56;;;;;;;;;3.33;3.33;;;;;14.01;66.40;100523.78;5077230;28;46372;-61
2022/11/03 02:50:27;;;;;;;;;5.33;3.67;;;;;14.05;66.97;100524.47;5076962;28;45480;-61
2022/11/03 02:52:52;;;;;;;;;4.00;4.00;;;;;14.06;66.49;100516.47;5074604;28;45434;-60
2022/11/03 02:55:37;;;;;;;;;6.67;6.33;;;;;14.03;66.67;100508.69;5077422;28;45467;-61
2022/11/03 02:58:17;;;;;;;;;5.67;5.67;;;;;14.02;66.99;100509.59;5076418;28;46425;-61
2022/11/03 03:00:51;;;;;;;;;4.00;4.00;;;;;14.04;66.60;100505.09;5077834;28;45485;-63
2022/11/03 03:03:26;;;;;;;;;4.00;3.33;;;;;14.02;66.94;100492.88;5077104;28;45326;-62
2022/11/03 03:05:58;;;;;;;;;2.33;2.33;;;;;14.02;67.11;100480.53;5077114;28;45397;-62
2022/11/03 03:08:25;;;;;;;;;6.00;5.67;;;;;14.04;66.46;100478.66;5076238;28;46123;-64
2022/11/03 03:10:52;;;;;;;;;5.00;4.00;;;;;14.00;66.10;100458.63;5068128;28;45443;-62
2022/11/03 03:13:21;;;;;;;;;6.33;5.33;;;;;14.00;66.85;100448.03;5076913;27;45423;-59
2022/11/03 03:16:25;;;;;;;;;6.00;5.00;;;;;13.96;66.93;100441.19;5075904;28;45605;-65
2022/11/03 03:19:12;;;;;;;;;5.00;4.00;;;;;13.98;66.88;100439.31;4958215;28;46322;-61
2022/11/03 03:21:44;;;;;;;;;6.67;6.00;;;;;13.97;67.11;100436.75;5067196;28;45616;-60
2022/11/03 03:24:22;;;;;;;;;5.67;4.67;;;;;13.94;66.94;100432.47;5077027;28;45430;-63
2022/11/03 03:26:48;;;;;;;;;6.00;6.00;;;;;13.95;67.02;100430.72;5076629;28;45538;-61
2022/11/03 03:29:19;;;;;;;;;8.00;6.33;;;;;13.95;67.01;100428.91;5076672;28;46409;-63
2022/11/03 03:31:59;;;;;;;;;4.00;4.00;;;;;13.98;66.38;100420.81;5076596;28;45466;-62
2022/11/03 03:34:27;;;;;;;;;7.00;7.00;;;;;14.00;66.94;100400.44;5076267;28;45469;-60
2022/11/03 03:36:56;;;;;;;;;7.00;4.00;;;;;14.03;66.34;100383.56;5076592;28;45416;-62
2022/11/03 03:39:26;;;;;;;;;8.00;6.00;;;;;14.04;66.22;100383.47;5057632;28;45720;-63
2022/11/03 03:41:53;;;;;;;;;7.00;5.00;;;;;14.03;66.63;100380.91;5076396;28;45418;-61
2022/11/03 03:44:19;;;;;;;;;4.67;4.67;;;;;14.04;66.50;100385.25;5076664;28;45439;-63
2022/11/03 03:46:50;;;;;;;;;4.67;4.67;;;;;14.02;66.25;100382.69;5075817;28;45519;-61
2022/11/03 03:49:16;;;;;;;;;6.33;4.67;;;;;14.01;66.65;100383.63;5076202;28;45390;-64
2022/11/03 03:51:42;;;;;;;;;7.00;5.00;;;;;14.01;66.86;100380.13;5076291;28;45358;-65
2022/11/03 03:54:08;;;;;;;;;5.33;5.33;;;;;14.03;66.51;100381.75;5075787;28;45481;-63
2022/11/03 03:56:47;;;;;;;;;5.33;5.33;;;;;14.09;66.27;100397.28;5076068;28;45363;-63
2022/11/03 03:59:12;;;;;;;;;10.67;5.33;;;;;14.10;65.74;100399.03;5072853;28;46288;-63
2022/11/03 04:01:37;;;;;;;;;5.67;5.67;;;;;14.11;66.30;100398.06;5075217;28;45374;-61
2022/11/03 04:04:03;;;;;;;;;6.00;6.00;;;;;14.14;65.90;100394.41;5075412;28;46944;-64
2022/11/03 04:06:28;;;;;;;;;7.33;6.67;;;;;14.11;66.11;100381.34;5064187;28;45518;-64
2022/11/03 04:08:54;;;;;;;;;3.00;3.00;;;;;14.10;66.20;100379.63;5070197;28;45566;-63
2022/11/03 04:22:16;;;;;;;;;4.00;4.00;;;;;13.98;65.94;100375.88;5075663;28;45749;-63
2022/11/03 04:24:49;;;;;;;;;4.67;4.67;;;;;13.97;66.49;100374.16;5076123;28;45457;-63
2022/11/03 04:27:17;;;;;;;;;6.33;4.00;;;;;13.96;66.52;100363.66;5057692;28;45378;-62
2022/11/03 04:29:43;;;;;;;;;6.33;6.00;;;;;13.92;66.14;100349.75;5075829;28;47207;-64
2022/11/03 04:32:15;;;;;;;;;3.00;3.00;;;;;13.90;66.75;100341.91;5074796;28;45494;-60
2022/11/03 04:34:41;;;;;;;;;5.00;5.00;;;;;13.93;66.08;100343.53;5075456;28;45441;-61
2022/11/03 04:37:13;;;;;;;;;6.00;5.00;;;;;13.94;66.58;100332.00;5075646;28;45433;-63
2022/11/03 04:39:39;;;;;;;;;7.67;6.00;;;;;13.94;66.39;100337.28;5075587;28;45891;-62
2022/11/03 04:42:31;;;;;;;;;5.00;4.67;;;;;13.92;66.73;100328.59;5075656;28;45346;-64
2022/11/03 04:45:00;;;;;;;;;6.00;5.33;;;;;13.95;66.54;100319.66;5070799;28;45607;-60
2022/11/03 04:47:25;;;;;;;;;5.00;5.00;;;;;13.94;66.73;100313.50;5075442;28;45550;-62
2022/11/03 04:49:51;;;;;;;;;5.00;5.00;;;;;13.96;66.38;100310.78;5075529;28;45458;-63
2022/11/03 04:52:21;;;;;;;;;6.00;4.00;;;;;13.98;66.38;100311.56;5075078;28;45800;-62
2022/11/03 04:54:48;;;;;;;;;5.67;4.67;;;;;13.97;65.83;100317.75;5074869;28;45497;-60
2022/11/03 04:57:16;;;;;;;;;5.00;4.00;;;;;13.96;66.13;100310.78;5073684;28;45707;-63
2022/11/03 04:59:44;;;;;;;;;7.33;4.33;;;;;13.95;65.96;100295.88;5059795;28;46203;-63
2022/11/03 05:02:14;;;;;;;;;5.00;5.00;;;;;13.93;66.17;100299.44;5069872;28;45450;-63
2022/11/03 05:04:41;;;;;;;;;6.67;4.33;;;;;13.93;66.06;100294.13;5057171;28;45588;-63
2022/11/03 05:07:31;;;;;;;;;3.67;3.67;;;;;13.91;66.29;100280.13;5074014;28;45569;-62
2022/11/03 05:09:57;;;;;;;;;5.33;5.33;;;;;13.89;66.60;100268.81;5072476;28;45505;-62
2022/11/03 05:12:23;;;;;;;;;6.00;5.00;;;;;13.87;66.06;100268.03;5075845;27;45367;-64
2022/11/03 05:14:49;;;;;;;;;5.00;5.00;;;;;13.89;66.10;100266.19;5078184;28;45541;-64
2022/11/03 05:17:22;;;;;;;;;6.33;5.33;;;;;13.89;65.90;100260.88;5077283;28;45371;-61
2022/11/03 05:19:50;;;;;;;;;5.00;5.00;;;;;13.89;65.83;100262.69;5078701;28;46057;-64
2022/11/03 05:22:19;;;;;;;;;7.00;6.00;;;;;13.88;65.71;100272.38;5078647;28;45502;-62
2022/11/03 05:24:44;;;;;;;;;7.67;5.00;;;;;13.89;65.99;100262.69;5078909;28;45532;-62
2022/11/03 05:27:19;;;;;;;;;4.33;4.33;;;;;13.87;66.30;100243.41;5077996;28;45411;-64
2022/11/03 05:29:46;;;;;;;;;7.00;6.00;;;;;13.84;66.06;100236.50;5078836;28;46160;-64
2022/11/03 05:32:20;;;;;;;;;5.00;3.33;;;;;13.80;65.75;100216.44;5078431;28;45474;-63
2022/11/03 05:34:48;;;;;;;;;7.00;5.33;;;;;13.81;66.31;100222.56;5078792;28;45422;-64
2022/11/03 05:37:27;;;;;;;;;7.00;5.67;;;;;13.80;66.53;100219.06;5078463;28;45395;-63
2022/11/03 05:39:56;;;;;;;;;8.67;7.67;;;;;13.83;66.04;100223.34;5076951;28;45791;-61
2022/11/03 05:42:21;;;;;;;;;7.00;7.00;;;;;13.86;66.31;100223.19;5071400;28;45406;-64
2022/11/03 05:44:48;;;;;;;;;6.33;6.33;;;;;13.87;66.62;100201.94;5078551;28;45466;-61
2022/11/03 05:47:21;;;;;;;;;8.00;6.67;;;;;13.80;66.42;100176.78;5078659;28;45428;-65
2022/11/03 05:49:55;;;;;;;;;6.00;5.33;;;;;13.75;66.96;100173.53;5077452;28;45430;-64
2022/11/03 05:52:25;;;;;;;;;5.67;5.67;;;;;13.75;66.97;100168.25;5076747;28;45632;-61
2022/11/03 05:54:57;;;;;;;;;10.67;7.00;;;;;13.76;66.76;100161.22;5078087;28;45517;-63
2022/11/03 05:57:27;;;;;;;;;5.67;5.00;;;;;13.76;66.33;100158.56;5078148;28;45350;-61
2022/11/03 05:59:52;;;;;;;;;5.67;5.00;;;;;13.74;66.61;100157.78;5077568;28;45482;-61
2022/11/03 06:02:35;;;;;;;;;6.67;5.33;;;;;13.70;67.11;100167.66;5077111;28;45476;-60
2022/11/03 06:05:01;;;;;;;;;5.33;5.33;;;;;13.72;66.85;100160.50;5072229;28;45862;-64
2022/11/03 06:07:30;;;;;;;;;5.00;5.00;;;;;13.71;66.59;100166.75;5078261;28;45970;-60
2022/11/03 06:09:57;;;;;;;;;6.33;6.33;;;;;13.69;66.52;100156.25;5075358;28;46224;-63
2022/11/03 06:12:23;;;;;;;;;7.00;7.00;;;;;13.70;67.14;100152.69;5076828;27;45511;-62
2022/11/03 06:14:50;;;;;;;;;7.00;7.00;;;;;13.70;66.86;100150.03;5077823;28;45457;-63
2022/11/03 06:17:26;;;;;;;;;7.33;7.33;;;;;13.68;67.02;100143.97;5074766;28;45629;-60
2022/11/03 06:19:56;;;;;;;;;6.00;6.00;;;;;13.71;67.00;100153.53;5072435;28;45388;-63
2022/11/03 06:22:22;;;;;;;;;7.00;7.00;;;;;13.73;66.78;100140.22;5078025;28;45382;-61
2022/11/03 06:24:48;;;;;;;;;8.33;7.33;;;;;13.68;66.54;100133.41;5077515;28;45398;-62
2022/11/03 06:27:17;;;;;;;;;7.00;6.00;;;;;13.68;67.10;100124.63;5078001;28;45287;-64
2022/11/03 06:29:48;;;;;;;;;8.00;6.00;;;;;13.68;67.07;100121.97;5047459;28;48508;-63
2022/11/03 06:32:14;;;;;;;;;6.00;6.00;;;;;13.68;66.65;100114.06;5077217;28;45517;-64
2022/11/03 06:34:46;;;;;;;;;6.67;6.33;;;;;13.66;66.78;100108.00;5077707;28;45388;-60
2022/11/03 06:37:33;;;;;;;;;6.00;5.00;;;;;13.67;66.78;100107.94;5077394;28;45590;-64
2022/11/03 06:40:10;;;;;;;;;8.67;6.00;;;;;13.71;66.92;100103.31;5077580;28;45501;-63
2022/11/03 06:42:40;;;;;;;;;9.33;5.00;;;;;13.70;66.69;100099.81;5077972;28;45664;-63
2022/11/03 06:45:24;;;;;;;;;7.00;7.00;;;;;13.69;66.76;100099.91;5059057;28;45439;-64
2022/11/03 06:47:52;;;;;;;;;6.00;4.00;;;;;13.70;66.96;100083.09;5076206;28;45445;-63
2022/11/03 06:50:31;;;;;;;;;8.67;5.33;;;;;13.68;66.72;100075.25;5077147;28;46233;-60
2022/11/03 06:53:00;;;;;;;;;7.00;7.00;;;;;13.68;66.80;100080.56;5065800;28;45422;-62
2022/11/03 06:55:34;;;;;;;;;5.33;4.00;;;;;13.69;66.92;100076.97;5057650;28;45498;-61
2022/11/03 06:58:33;;;;;;;;;8.00;7.00;;;;;13.69;66.47;100078.75;5074738;28;45499;-62
2022/11/03 07:01:07;;;;;;;;;6.33;6.33;;;;;13.70;66.35;100080.44;5075919;28;45386;-63
2022/11/03 07:03:34;;;;;;;;;6.00;4.00;;;;;13.69;66.33;100053.16;5076717;28;45395;-64
2022/11/03 07:06:23;;;;;;;;;6.67;6.67;;;;;13.69;66.33;100049.69;5076165;28;45511;-64
2022/11/03 07:08:54;;;;;;;;;5.33;4.33;;;;;13.70;66.37;100046.09;5071708;28;45507;-63
2022/11/03 07:11:23;;;;;;;;;6.00;5.00;;;;;13.70;66.43;100051.38;5076425;28;46414;-64
2022/11/03 07:13:55;;;;;;;;;7.00;6.00;;;;;13.72;66.17;100033.66;5075822;28;45627;-63
2022/11/03 07:16:59;;;;;;;;;10.00;7.00;;;;;13.69;66.30;100039.97;5075367;28;45575;-64
2022/11/03 07:19:39;;;;;;;;;10.00;6.33;;;;;13.75;66.05;100027.34;5076117;28;45632;-63
2022/11/03 07:22:25;;;;;;;;;5.00;5.00;;;;;13.76;66.02;100029.06;5076281;28;45387;-63
2022/11/03 07:24:58;;;;;;;;;7.00;5.33;;;;;13.74;65.67;100015.91;5076275;28;45478;-62
2022/11/03 07:27:28;;;;;;;;;7.00;5.67;;;;;13.76;65.97;100013.19;5076659;28;45399;-62
2022/11/03 07:30:14;;;;;;;;;7.00;7.00;;;;;13.71;65.85;100013.47;5076607;28;45376;-63
2022/11/03 07:32:40;;;;;;;;;10.67;5.67;;;;;13.73;65.63;100006.31;5064341;28;45381;-64
2022/11/03 07:35:17;;;;;;;;;8.00;7.00;;;;;13.69;65.54;99997.69;5076006;28;45411;-63
2022/11/03 07:37:44;;;;;;;;;7.00;7.00;;;;;13.70;65.69;99998.53;5075971;28;45488;-64
2022/11/03 07:40:16;;;;;;;;;6.00;6.00;;;;;13.69;65.26;99995.03;5076396;28;45382;-64
2022/11/03 07:42:42;;;;;;;;;4.00;4.00;;;;;13.71;65.45;99973.81;5076219;28;45476;-62
2022/11/03 07:45:32;;;;;;;;;6.00;5.00;;;;;13.70;65.21;99991.47;5076172;28;45403;-64
2022/11/03 07:47:59;;;;;;;;;7.00;7.00;;;;;13.71;65.21;99989.69;5076171;28;45561;-63
2022/11/03 07:50:24;;;;;;;;;12.00;8.00;;;;;13.74;65.23;99983.34;5076261;28;45473;-63
2022/11/03 07:52:49;;;;;;;;;8.00;8.00;;;;;13.69;64.97;99968.59;5075756;28;45462;-64
2022/11/03 07:55:15;;;;;;;;;6.00;6.00;;;;;13.68;65.22;99974.84;5076164;28;45388;-62
2022/11/03 07:57:40;;;;;;;;;7.33;6.00;;;;;13.69;65.46;99973.03;5075763;28;52997;-63
2022/11/03 08:00:13;;;;;;;;;8.00;6.67;;;;;13.69;65.14;99973.91;5076354;28;50307;-63
2022/11/03 08:02:50;;;;;;;;;8.00;6.00;;;;;13.70;64.78;99965.03;5076096;28;45362;-63
2022/11/03 08:05:15;;;;;;;;;4.00;3.33;;;;;13.70;64.96;99958.88;5063010;28;45520;-63
2022/11/03 08:07:40;;;;;;;;;6.67;6.67;;;;;13.69;64.82;99947.47;5075895;28;45487;-63
2022/11/03 08:10:06;;;;;;;;;4.00;4.00;;;;;13.74;64.55;99965.72;5075604;28;45591;-64
2022/11/03 08:12:32;;;;;;;;;6.33;6.00;;;;;13.76;64.54;99955.91;5075679;27;46133;-63
2022/11/03 08:14:57;;;;;;;;;5.33;5.33;;;;;13.78;64.47;99959.31;5075370;28;45421;-64
2022/11/03 08:17:22;;;;;;;;;4.67;4.67;;;;;13.80;64.39;99953.91;5076124;28;45565;-63
2022/11/03 08:19:48;;;;;;;;;8.33;7.67;;;;;13.84;64.43;99940.44;5075882;28;45429;-64
2022/11/03 08:22:13;;;;;;;;;9.67;8.33;;;;;13.89;64.54;99948.09;5075444;28;55038;-64
2022/11/03 08:24:38;;;;;;;;;8.67;7.33;;;;;13.88;64.29;99939.31;5075125;28;57000;-64
2022/11/03 08:27:03;;;;;;;;;5.00;5.00;;;;;13.91;63.54;99925.06;5075755;28;45537;-63
2022/11/03 08:29:29;;;;;;;;;4.67;4.67;;;;;13.92;63.45;99932.06;5075943;28;45378;-63
2022/11/03 08:31:55;;;;;;;;;4.33;4.00;;;;;13.93;63.60;99933.75;5075440;28;45419;-64
2022/11/03 08:34:20;;;;;;;;;3.33;2.00;;;;;13.92;63.64;99938.19;5075752;28;45469;-64
2022/11/03 08:36:45;;;;;;;;;7.00;5.33;;;;;13.93;64.15;99939.88;5075700;28;45382;-63
2022/11/03 08:39:11;;;;;;;;;7.67;5.67;;;;;13.94;63.61;99938.09;5075688;28;45589;-64
2022/11/03 08:41:36;;;;;;;;;3.33;3.00;;;;;13.97;63.87;99927.34;5075427;28;46180;-64
2022/11/03 08:44:02;;;;;;;;;5.00;5.00;;;;;14.01;63.04;99926.22;5075473;28;45372;-63
2022/11/03 08:46:27;;;;;;;;;5.00;5.00;;;;;14.02;63.40;99919.13;5075487;28;45415;-64
2022/11/03 08:48:53;;;;;;;;;7.00;6.00;;;;;14.02;63.74;99904.09;5075217;28;45367;-63
2022/11/03 08:51:18;;;;;;;;;6.33;5.00;;;;;14.07;63.49;99902.03;5075109;28;45425;-64
2022/11/03 08:53:44;;;;;;;;;8.33;7.33;;;;;14.10;62.95;99891.28;5075250;28;45384;-64
2022/11/03 08:56:10;;;;;;;;;7.33;5.00;;;;;14.14;63.20;99882.22;5075184;28;45390;-64
2022/11/03 08:58:36;;;;;;;;;4.67;4.67;;;;;14.17;63.04;99875.03;5056836;28;45514;-63
2022/11/03 09:01:01;;;;;;;;;4.67;3.67;;;;;14.17;62.56;99872.41;5075471;28;45892;-63
2022/11/03 09:03:26;;;;;;;;;5.00;5.00;;;;;14.19;62.62;99886.38;5075247;28;45394;-64
2022/11/03 09:05:52;;;;;;;;;6.00;6.00;;;;;14.17;63.16;99875.03;5075274;28;45581;-63
2022/11/03 09:08:17;;;;;;;;;7.50;6.00;;;;;14.15;62.96;99859.25;5074615;28;51579;-64
2022/11/03 09:10:42;;;;;;;;;5.00;5.00;;;;;14.14;63.00;99862.84;5065294;28;45533;-63
2022/11/03 09:13:08;;;;;;;;;4.00;4.00;;;;;14.14;63.30;99850.47;5070733;27;45434;-63
2022/11/03 09:15:33;;;;;;;;;3.00;3.00;;;;;14.13;63.34;99861.13;5075151;28;45495;-63
2022/11/03 09:17:59;;;;;;;;;4.00;4.00;;;;;14.12;63.34;99843.56;5056579;28;45714;-63
2022/11/03 09:20:24;;;;;;;;;4.00;4.00;;;;;14.14;63.10;99833.75;5074698;28;46203;-64
2022/11/03 09:22:50;;;;;;;;;5.00;5.00;;;;;14.15;62.58;99819.59;5075031;28;45452;-64
2022/11/03 09:25:15;;;;;;;;;4.33;4.00;;;;;14.14;62.33;99817.91;5074645;28;45403;-64
2022/11/03 09:27:41;;;;;;;;;6.33;6.33;;;;;14.15;62.96;99811.66;5074884;28;45554;-63
2022/11/03 09:30:07;;;;;;;;;8.33;6.33;;;;;14.15;63.25;99801.06;5074811;28;46128;-64
2022/11/03 09:32:33;;;;;;;;;4.00;4.00;;;;;14.19;62.85;99804.41;5075076;28;45435;-63
2022/11/03 09:34:58;;;;;;;;;6.33;5.00;;;;;14.22;62.79;99801.56;5056858;28;45603;-64
2022/11/03 09:37:23;;;;;;;;;8.33;8.33;;;;;14.23;62.65;99797.94;5074846;28;45342;-64
2022/11/03 09:39:49;;;;;;;;;14.33;10.67;;;;;14.27;62.69;99799.47;5074649;28;45386;-64
2022/11/03 09:42:16;;;;;;;;;6.33;6.33;;;;;14.31;61.98;99799.16;5074682;28;45359;-62
2022/11/03 09:44:41;;;;;;;;;4.33;2.67;;;;;14.36;62.89;99791.78;5074780;28;45486;-63
2022/11/03 09:47:15;;;;;;;;;11.33;9.00;;;;;14.41;62.36;99785.34;5074484;28;45516;-63
2022/11/03 09:49:41;;;;;;;;;6.33;6.33;;;;;14.43;62.20;99781.66;5074641;28;45379;-63
2022/11/03 09:52:06;;;;;;;;;6.00;5.33;;;;;14.47;61.88;99782.31;5074315;28;52896;-63
2022/11/03 09:54:31;;;;;;;;;5.00;5.00;;;;;14.52;62.16;99775.81;5074561;28;45486;-64
2022/11/03 09:57:11;;;;;;;;;4.00;4.00;;;;;14.55;62.21;99778.25;5074287;28;45469;-63
2022/11/03 09:59:38;;;;;;;;;7.00;5.00;;;;;14.57;61.56;99773.72;5075261;28;46268;-63
2022/11/03 10:02:18;;;;;;;;;7.33;7.33;;;;;14.59;61.45;99765.69;5078426;28;45409;-63
2022/11/03 10:04:44;;;;;;;;;5.00;5.00;;;;;14.62;61.31;99760.19;5078027;28;45489;-63
2022/11/03 10:07:10;;;;;;;;;6.67;6.67;;;;;14.66;61.78;99752.88;5077959;28;45529;-63
2022/11/03 10:09:38;;;;;;;;;6.67;6.67;;;;;14.71;60.69;99751.63;5077699;28;45470;-64
2022/11/03 10:12:03;;;;;;;;;6.00;5.67;;;;;14.73;61.19;99752.38;5078006;28;45460;-63
2022/11/03 10:14:28;;;;;;;;;7.33;4.33;;;;;14.73;61.30;99744.44;5077942;28;45422;-63
2022/11/03 10:17:01;;;;;;;;;7.00;7.00;;;;;14.71;60.98;99746.34;5059219;28;45692;-63
2022/11/03 10:19:26;;;;;;;;;4.33;3.00;;;;;14.73;60.87;99736.50;5077927;28;45411;-64
2022/11/03 10:21:52;;;;;;;;;6.00;6.00;;;;;14.71;60.60;99740.19;5077620;28;45390;-63
2022/11/03 10:24:17;;;;;;;;;8.67;8.67;;;;;14.70;60.85;99736.72;5076035;28;45435;-63
2022/11/03 10:26:48;;;;;;;;;5.00;4.00;;;;;14.72;60.10;99726.00;5077379;28;45397;-63
2022/11/03 10:29:25;;;;;;;;;7.67;7.00;;;;;14.72;60.68;99718.06;5077471;28;46289;-63
2022/11/03 10:31:53;;;;;;;;;8.33;6.00;;;;;14.73;60.80;99719.78;5077143;28;45462;-63
2022/11/03 10:34:38;;;;;;;;;4.00;4.00;;;;;14.76;61.14;99709.81;5077503;28;45438;-64
2022/11/03 10:37:21;;;;;;;;;3.00;3.00;;;;;14.83;60.61;99714.69;5077390;28;45486;-63
2022/11/03 10:39:55;;;;;;;;;6.67;6.33;;;;;14.88;59.24;99699.34;5071367;28;47868;-63
2022/11/03 10:42:31;;;;;;;;;10.33;8.00;;;;;14.92;60.30;99714.09;5055671;28;45507;-63
2022/11/03 10:45:23;;;;;;;;;7.67;6.67;;;;;14.94;59.50;99706.91;5077730;28;45364;-63
2022/11/03 10:48:00;;;;;;;;;4.67;4.67;;;;;14.97;60.39;99709.34;5072509;28;45531;-62
2022/11/03 10:50:27;;;;;;;;;8.67;6.33;;;;;15.01;59.73;99695.75;5058428;28;47098;-63
2022/11/03 10:52:53;;;;;;;;;3.67;3.67;;;;;15.01;59.50;99700.22;5077089;28;45454;-64
2022/11/03 10:55:20;;;;;;;;;10.00;10.00;;;;;15.02;59.73;99688.69;5077199;28;45387;-63
2022/11/03 10:57:45;;;;;;;;;6.00;6.00;;;;;15.08;59.91;99688.25;5076860;28;45515;-63
2022/11/03 11:00:17;;;;;;;;;6.67;5.00;;;;;15.11;60.23;99677.44;5058225;28;45688;-64
2022/11/03 11:02:45;;;;;;;;;7.00;7.00;;;;;15.20;59.57;99682.09;5058772;28;45494;-64
2022/11/03 11:05:22;;;;;;;;;5.00;4.67;;;;;15.27;58.98;99681.69;5076729;28;45363;-63
2022/11/03 11:07:50;;;;;;;;;6.33;6.33;;;;;15.31;59.41;99672.56;5076608;28;45474;-63
2022/11/03 11:10:19;;;;;;;;;11.33;11.33;;;;;15.30;59.38;99674.38;5076471;28;45997;-63
2022/11/03 11:13:22;;;;;;;;;8.33;6.00;;;;;15.31;59.22;99669.91;5076910;27;45385;-64
2022/11/03 11:15:56;;;;;;;;;6.00;5.00;;;;;15.37;59.40;99670.34;5066264;28;45589;-63
2022/11/03 11:18:44;;;;;;;;;16.67;16.67;;;;;15.41;59.38;99658.56;5076558;28;45383;-64
2022/11/03 11:21:18;;;;;;;;;5.00;5.00;;;;;15.39;59.56;99657.84;5062886;28;46301;-63
2022/11/03 11:23:46;;;;;;;;;4.00;4.00;;;;;15.37;59.18;99645.66;5076236;28;45473;-64
2022/11/03 11:26:26;;;;;;;;;4.00;4.00;;;;;15.38;59.65;99636.75;5076015;28;45489;-63
2022/11/03 11:29:10;;;;;;;;;3.33;3.33;;;;;15.35;59.44;99653.72;5076211;28;45362;-64
2022/11/03 11:31:45;;;;;;;;;3.33;2.00;;;;;15.34;60.19;99661.75;5076351;28;46032;-64
2022/11/03 11:34:17;;;;;;;;;4.67;3.67;;;;;15.31;59.94;99646.06;5063361;28;45473;-64
2022/11/03 11:36:44;;;;;;;;;3.33;3.33;;;;;15.27;61.21;99645.47;5076540;28;45492;-64
2022/11/03 11:39:18;;;;;;;;;7.33;7.33;;;;;15.30;61.13;99647.03;5076378;28;45554;-63
2022/11/03 11:42:10;;;;;;;;;3.00;3.00;;;;;15.30;61.81;99647.03;5076088;28;45501;-64
2022/11/03 11:44:41;;;;;;;;;7.00;7.00;;;;;15.33;62.29;99628.28;5075000;28;45458;-62
2022/11/03 11:47:30;;;;;;;;;5.67;5.00;;;;;15.31;62.64;99635.47;5076222;28;45474;-64
2022/11/03 11:50:04;;;;;;;;;12.67;12.67;;;;;15.25;63.17;99624.34;5063085;28;45468;-64
2022/11/03 11:52:31;;;;;;;;;11.33;10.67;;;;;15.25;62.99;99608.47;5075755;28;46616;-63
2022/11/03 11:54:56;;;;;;;;;6.33;6.33;;;;;15.27;62.39;99612.81;5061664;28;45566;-64
2022/11/03 11:57:23;;;;;;;;;8.00;6.00;;;;;15.25;63.31;99589.06;5076192;28;45529;-63
2022/11/03 11:59:50;;;;;;;;;6.67;5.33;;;;;15.24;64.37;99596.19;5076091;28;45509;-65
2022/11/03 12:02:21;;;;;;;;;7.00;7.00;;;;;15.27;63.28;99597.78;5075271;28;46411;-64